Federal Kumano — VRYL4 — position and weather

sailwx.info

Track history (hours):
 
Tides and Currents Weather Stations Pressure Air Temp Water Temp Dewpoint Dewpoint Depression Visibility Wind Speed Wind Dir Waves Ship Positions

Federal Kumano

Last reported at 2016-Feb-05 04:12 UTC. Time now 2016-Feb-08 18:59 UTC.
Position N 31°55' E 120°14'.

Length 200 m; draft 6.1 m.

Type: Cargo ship. MMSI: 477284000.

Date/timePositionNaut miles runAvg speedWind from/ knotsBaromVisibWave heightAir tempDewpointWater temp
2016-Feb-05 04:12N 31°55' E 120°14'1 1.6
2016-Feb-05 03:28N 31°56' E 120°15'1311.9
2016-Feb-05 02:21N 32°04' E 120°28'910.8
2016-Feb-05 01:33N 32°00' E 120°37'1110.6
2016-Feb-05 00:30N 31°59' E 120°50'1111.9
2016-Feb-04 23:33N 31°49' E 120°55'1111.1
2016-Feb-04 22:33N 31°44' E 121°07'8 8.3
2016-Feb-04 21:33N 31°39' E 121°14'1 1.2
2016-Feb-04 20:32N 31°38' E 121°15'0 0.0
2016-Feb-04 19:32N 31°38' E 121°15'0 0.1
2016-Feb-04 18:32N 31°38' E 121°15'0 0.0
2016-Feb-04 17:32N 31°38' E 121°15'0 0.0
2016-Feb-04 16:33N 31°38' E 121°15'0 0.2
2016-Feb-04 15:32N 31°38' E 121°15'6 6.1
2016-Feb-04 14:33N 31°34' E 121°19'1111.0
2016-Feb-04 13:34N 31°26' E 121°29'1110.6
2016-Feb-04 12:33N 31°21' E 121°40'1313.0
2016-Feb-04 11:33N 31°11' E 121°50'  
2016-Feb-01 17:33N 33°59' E 134°55'1313.5
2016-Feb-01 16:33N 34°12' E 134°57'1211.6
2016-Feb-01 15:33N 34°24' E 135°01'1413.8
2016-Feb-01 14:33N 34°32' E 135°13'1010.4
2016-Feb-01 13:33N 34°42' E 135°18'0 0.0
2016-Feb-01 12:32N 34°42' E 135°18'0 0.0
2016-Feb-01 11:32N 34°42' E 135°18'0 0.0
2016-Feb-01 10:32N 34°42' E 135°18'0 0.0
2016-Feb-01 09:32N 34°42' E 135°18'0 0.0
2016-Feb-01 08:32N 34°42' E 135°18'0 0.0
2016-Feb-01 07:32N 34°42' E 135°18'0 0.0
2016-Feb-01 06:26N 34°42' E 135°18'0 0.0
2016-Feb-01 05:32N 34°42' E 135°18'0 0.0
2016-Feb-01 04:26N 34°42' E 135°18'0 0.0
2016-Feb-01 03:32N 34°42' E 135°18'0 0.0
2016-Feb-01 02:32N 34°42' E 135°18'0 0.0
2016-Feb-01 01:32N 34°42' E 135°18'0 0.0
2016-Feb-01 00:32N 34°42' E 135°18'0 0.0
2016-Jan-31 23:32N 34°42' E 135°18'0 0.0
2016-Jan-31 22:32N 34°42' E 135°18'0 0.0
2016-Jan-31 21:32N 34°42' E 135°18'0 0.0
2016-Jan-31 20:32N 34°42' E 135°18'0 0.0
2016-Jan-31 19:32N 34°42' E 135°18'0 0.0
2016-Jan-31 18:32N 34°42' E 135°18'0 0.0
2016-Jan-31 17:32N 34°42' E 135°18'0 0.0
2016-Jan-31 16:32N 34°42' E 135°18'0 0.0
2016-Jan-31 15:32N 34°42' E 135°18'0 0.0
2016-Jan-31 14:32N 34°42' E 135°18'0 0.0
2016-Jan-31 13:32N 34°42' E 135°18'0 0.0
2016-Jan-31 12:32N 34°42' E 135°18'0 0.0
2016-Jan-31 11:32N 34°42' E 135°18'0 0.0
2016-Jan-31 10:32N 34°42' E 135°18'0 0.0
2016-Jan-31 09:26N 34°42' E 135°18'0 0.0
2016-Jan-31 08:32N 34°42' E 135°18'0 0.0
2016-Jan-31 07:20N 34°42' E 135°18'0 0.0
2016-Jan-31 06:20N 34°42' E 135°18'0 0.0
2016-Jan-31 05:32N 34°42' E 135°18'0 0.0
2016-Jan-31 04:32N 34°42' E 135°18'0 0.0
2016-Jan-31 03:32N 34°42' E 135°18'0 0.0
2016-Jan-31 02:32N 34°42' E 135°18'0 0.0
2016-Jan-31 01:32N 34°42' E 135°18'0 0.0
2016-Jan-31 00:20N 34°42' E 135°18'0 0.0
2016-Jan-30 23:32N 34°42' E 135°18'0 0.0
2016-Jan-30 22:32N 34°42' E 135°18'0 0.0
2016-Jan-30 21:32N 34°42' E 135°18'0 0.0
2016-Jan-30 20:32N 34°42' E 135°18'0 0.0
2016-Jan-30 19:32N 34°42' E 135°18'0 0.0
2016-Jan-30 18:32N 34°42' E 135°18'0 0.0
2016-Jan-30 17:32N 34°42' E 135°18'0 0.0
2016-Jan-30 16:32N 34°42' E 135°18'0 0.0
2016-Jan-30 15:32N 34°42' E 135°18'0 0.0
2016-Jan-30 14:32N 34°42' E 135°18'0 0.0
2016-Jan-30 13:26N 34°42' E 135°18'0 0.0
2016-Jan-30 12:32N 34°42' E 135°18'0 0.0
2016-Jan-30 11:32N 34°42' E 135°18'0 0.0
2016-Jan-30 10:20N 34°42' E 135°18'0 0.0
2016-Jan-30 09:32N 34°42' E 135°18'0 0.0
2016-Jan-30 08:26N 34°42' E 135°18'0 0.0
2016-Jan-30 07:32N 34°42' E 135°18'0 0.0
2016-Jan-30 06:32N 34°42' E 135°18'0 0.0
2016-Jan-30 05:32N 34°42' E 135°18'0 0.0
2016-Jan-30 04:32N 34°42' E 135°18'0 0.0
2016-Jan-30 03:26N 34°42' E 135°18'0 0.0
2016-Jan-30 02:32N 34°42' E 135°18'0 0.0
2016-Jan-30 01:32N 34°42' E 135°18'0 0.0
2016-Jan-30 00:32N 34°42' E 135°18'0 0.0
2016-Jan-29 23:20N 34°42' E 135°18'0 0.0
2016-Jan-29 22:32N 34°42' E 135°18'0 0.0
2016-Jan-29 21:32N 34°42' E 135°18'0 0.0
2016-Jan-29 20:32N 34°42' E 135°18'0 0.0
2016-Jan-29 19:32N 34°42' E 135°18'0 0.0
2016-Jan-29 18:32N 34°42' E 135°18'0 0.0
2016-Jan-29 17:26N 34°42' E 135°18'0 0.0
2016-Jan-29 16:32N 34°42' E 135°18'0 0.0
2016-Jan-29 15:32N 34°42' E 135°18'0 0.0
2016-Jan-29 14:32N 34°42' E 135°18'0 0.0
2016-Jan-29 13:32N 34°42' E 135°18'0 0.0
2016-Jan-29 12:20N 34°42' E 135°18'0 0.0
2016-Jan-29 11:26N 34°42' E 135°18'0 0.0
2016-Jan-29 10:26N 34°42' E 135°18'0 0.0
2016-Jan-29 09:32N 34°42' E 135°18'0 0.0
2016-Jan-29 08:26N 34°42' E 135°18'0 0.0
2016-Jan-29 07:32N 34°42' E 135°18'0 0.0
2016-Jan-29 06:32N 34°42' E 135°18'0 0.0
2016-Jan-29 05:26N 34°42' E 135°18'0 0.0
2016-Jan-29 04:14N 34°42' E 135°18'0 0.0
2016-Jan-29 03:32N 34°42' E 135°18'0 0.0
2016-Jan-29 02:32N 34°42' E 135°18'0 0.0
2016-Jan-29 01:32N 34°42' E 135°18'0 0.0
2016-Jan-29 00:20N 34°42' E 135°18'0 0.0
2016-Jan-28 23:20N 34°42' E 135°18'1 1.8
2016-Jan-28 22:33N 34°41' E 135°18'2 2.0
2016-Jan-28 21:33N 34°42' E 135°16'0 0.0
2016-Jan-28 20:07N 34°42' E 135°16'0 0.0
2016-Jan-28 19:25N 34°42' E 135°16'0 0.0
2016-Jan-28 18:25N 34°42' E 135°16'0 0.0
2016-Jan-28 17:31N 34°42' E 135°16'0 0.0
2016-Jan-28 16:25N 34°42' E 135°16'0 0.0
2016-Jan-28 15:31N 34°42' E 135°16'0 0.0
2016-Jan-28 14:31N 34°42' E 135°16'0 0.0
2016-Jan-28 13:19N 34°42' E 135°16'0 0.0
2016-Jan-28 12:31N 34°42' E 135°16'0 0.0
2016-Jan-28 11:31N 34°42' E 135°16'0 0.0
2016-Jan-28 10:25N 34°42' E 135°16'0 0.0
2016-Jan-28 09:31N 34°42' E 135°16'0 0.0
2016-Jan-28 08:31N 34°42' E 135°16'0 0.0
2016-Jan-28 07:31N 34°42' E 135°16'0 0.0
2016-Jan-28 06:19N 34°42' E 135°16'0 0.0
2016-Jan-28 05:31N 34°42' E 135°16'0 0.0
2016-Jan-28 04:25N 34°42' E 135°16'0 0.0
2016-Jan-28 03:31N 34°42' E 135°16'0 0.0
2016-Jan-28 02:31N 34°42' E 135°16'0 0.0
2016-Jan-28 01:31N 34°42' E 135°16'0 0.0
2016-Jan-28 00:31N 34°42' E 135°16'0 0.0
2016-Jan-27 23:31N 34°42' E 135°16'0 0.0
2016-Jan-27 22:31N 34°42' E 135°16'0 0.0
2016-Jan-27 21:31N 34°42' E 135°16'0 0.0
2016-Jan-27 20:31N 34°42' E 135°16'0 0.0
2016-Jan-27 19:31N 34°42' E 135°16'0 0.0
2016-Jan-27 18:31N 34°42' E 135°16'0 0.0
2016-Jan-27 17:31N 34°42' E 135°16'0 0.0
2016-Jan-27 16:31N 34°42' E 135°16'0 0.0
2016-Jan-27 15:25N 34°42' E 135°16'0 0.0
2016-Jan-27 14:31N 34°42' E 135°16'0 0.0
2016-Jan-27 13:31N 34°42' E 135°16'0 0.0
2016-Jan-27 12:31N 34°42' E 135°16'0 0.0
2016-Jan-27 11:31N 34°42' E 135°16'0 0.0
2016-Jan-27 10:31N 34°42' E 135°16'0 0.0
2016-Jan-27 09:31N 34°42' E 135°16'0 0.0
2016-Jan-27 08:31N 34°42' E 135°16'0 0.0
2016-Jan-27 06:25N 34°42' E 135°16'0 0.0
2016-Jan-27 05:31N 34°42' E 135°16'0 0.0
2016-Jan-27 04:19N 34°42' E 135°16'0 0.0
2016-Jan-27 03:31N 34°42' E 135°16'0 0.0
2016-Jan-27 02:25N 34°42' E 135°16'0 0.0
2016-Jan-27 01:19N 34°42' E 135°16'0 0.0
2016-Jan-27 00:33N 34°42' E 135°16'0 0.0
2016-Jan-26 23:33N 34°42' E 135°16'0 0.4
2016-Jan-26 22:33N 34°42' E 135°15'4 4.3
2016-Jan-26 21:33N 34°38' E 135°18'0 0.1
2016-Jan-26 20:32N 34°38' E 135°18'0 0.0
2016-Jan-26 19:32N 34°38' E 135°18'0 0.1
2016-Jan-26 18:32N 34°38' E 135°18'0 0.0
2016-Jan-26 17:26N 34°38' E 135°18'0 0.0
2016-Jan-26 16:32N 34°38' E 135°18'0 0.0
2016-Jan-26 15:32N 34°38' E 135°18'0 0.0
2016-Jan-26 14:32N 34°38' E 135°18'0 0.0
2016-Jan-26 13:26N 34°38' E 135°18'0 0.0
2016-Jan-26 12:32N 34°38' E 135°18'0 0.0
2016-Jan-26 11:26N 34°38' E 135°18'0 0.0
2016-Jan-26 10:32N 34°38' E 135°18'0 0.0
2016-Jan-26 09:32N 34°38' E 135°18'0 0.0
2016-Jan-26 08:26N 34°38' E 135°18'0 0.0
2016-Jan-26 07:32N 34°38' E 135°18'0 0.0
2016-Jan-26 06:32N 34°38' E 135°18'2 1.7
2016-Jan-26 05:33N 34°37' E 135°17'1212.3
2016-Jan-26 04:33N 34°26' E 135°09'  
Track history (hours):
 
Tides and Currents Weather Stations Pressure Air Temp Water Temp Dewpoint Dewpoint Depression Visibility Wind Speed Wind Dir Waves Ship Positions

Federal Kumano

Last reported at 2016-Feb-05 04:12 UTC. Time now 2016-Feb-08 18:59 UTC.
Position N 31°55' E 120°14'.

Length 200 m; draft 6.1 m.

Type: Cargo ship. MMSI: 477284000.

Date/timePositionNaut miles runAvg speedWind from/ knotsBaromVisibWave heightAir tempDewpointWater temp
2016-Feb-05 04:12N 31°55' E 120°14'1 1.6
2016-Feb-05 03:28N 31°56' E 120°15'1311.9
2016-Feb-05 02:21N 32°04' E 120°28'910.8
2016-Feb-05 01:33N 32°00' E 120°37'1110.6
2016-Feb-05 00:30N 31°59' E 120°50'1111.9
2016-Feb-04 23:33N 31°49' E 120°55'1111.1
2016-Feb-04 22:33N 31°44' E 121°07'8 8.3
2016-Feb-04 21:33N 31°39' E 121°14'1 1.2
2016-Feb-04 20:32N 31°38' E 121°15'0 0.0
2016-Feb-04 19:32N 31°38' E 121°15'0 0.1
2016-Feb-04 18:32N 31°38' E 121°15'0 0.0
2016-Feb-04 17:32N 31°38' E 121°15'0 0.0
2016-Feb-04 16:33N 31°38' E 121°15'0 0.2
2016-Feb-04 15:32N 31°38' E 121°15'6 6.1
2016-Feb-04 14:33N 31°34' E 121°19'1111.0
2016-Feb-04 13:34N 31°26' E 121°29'1110.6
2016-Feb-04 12:33N 31°21' E 121°40'1313.0
2016-Feb-04 11:33N 31°11' E 121°50'  
2016-Feb-01 17:33N 33°59' E 134°55'1313.5
2016-Feb-01 16:33N 34°12' E 134°57'1211.6
2016-Feb-01 15:33N 34°24' E 135°01'1413.8
2016-Feb-01 14:33N 34°32' E 135°13'1010.4
2016-Feb-01 13:33N 34°42' E 135°18'0 0.0
2016-Feb-01 12:32N 34°42' E 135°18'0 0.0
2016-Feb-01 11:32N 34°42' E 135°18'0 0.0
2016-Feb-01 10:32N 34°42' E 135°18'0 0.0
2016-Feb-01 09:32N 34°42' E 135°18'0 0.0
2016-Feb-01 08:32N 34°42' E 135°18'0 0.0
2016-Feb-01 07:32N 34°42' E 135°18'0 0.0
2016-Feb-01 06:26N 34°42' E 135°18'0 0.0
2016-Feb-01 05:32N 34°42' E 135°18'0 0.0
2016-Feb-01 04:26N 34°42' E 135°18'0 0.0
2016-Feb-01 03:32N 34°42' E 135°18'0 0.0
2016-Feb-01 02:32N 34°42' E 135°18'0 0.0
2016-Feb-01 01:32N 34°42' E 135°18'0 0.0
2016-Feb-01 00:32N 34°42' E 135°18'0 0.0
2016-Jan-31 23:32N 34°42' E 135°18'0 0.0
2016-Jan-31 22:32N 34°42' E 135°18'0 0.0
2016-Jan-31 21:32N 34°42' E 135°18'0 0.0
2016-Jan-31 20:32N 34°42' E 135°18'0 0.0
2016-Jan-31 19:32N 34°42' E 135°18'0 0.0
2016-Jan-31 18:32N 34°42' E 135°18'0 0.0
2016-Jan-31 17:32N 34°42' E 135°18'0 0.0
2016-Jan-31 16:32N 34°42' E 135°18'0 0.0
2016-Jan-31 15:32N 34°42' E 135°18'0 0.0
2016-Jan-31 14:32N 34°42' E 135°18'0 0.0
2016-Jan-31 13:32N 34°42' E 135°18'0 0.0
2016-Jan-31 12:32N 34°42' E 135°18'0 0.0
2016-Jan-31 11:32N 34°42' E 135°18'0 0.0
2016-Jan-31 10:32N 34°42' E 135°18'0 0.0
2016-Jan-31 09:26N 34°42' E 135°18'0 0.0
2016-Jan-31 08:32N 34°42' E 135°18'0 0.0
2016-Jan-31 07:20N 34°42' E 135°18'0 0.0
2016-Jan-31 06:20N 34°42' E 135°18'0 0.0
2016-Jan-31 05:32N 34°42' E 135°18'0 0.0
2016-Jan-31 04:32N 34°42' E 135°18'0 0.0
2016-Jan-31 03:32N 34°42' E 135°18'0 0.0
2016-Jan-31 02:32N 34°42' E 135°18'0 0.0
2016-Jan-31 01:32N 34°42' E 135°18'0 0.0
2016-Jan-31 00:20N 34°42' E 135°18'0 0.0
2016-Jan-30 23:32N 34°42' E 135°18'0 0.0
2016-Jan-30 22:32N 34°42' E 135°18'0 0.0
2016-Jan-30 21:32N 34°42' E 135°18'0 0.0
2016-Jan-30 20:32N 34°42' E 135°18'0 0.0
2016-Jan-30 19:32N 34°42' E 135°18'0 0.0
2016-Jan-30 18:32N 34°42' E 135°18'0 0.0
2016-Jan-30 17:32N 34°42' E 135°18'0 0.0
2016-Jan-30 16:32N 34°42' E 135°18'0 0.0
2016-Jan-30 15:32N 34°42' E 135°18'0 0.0
2016-Jan-30 14:32N 34°42' E 135°18'0 0.0
2016-Jan-30 13:26N 34°42' E 135°18'0 0.0
2016-Jan-30 12:32N 34°42' E 135°18'0 0.0
2016-Jan-30 11:32N 34°42' E 135°18'0 0.0
2016-Jan-30 10:20N 34°42' E 135°18'0 0.0
2016-Jan-30 09:32N 34°42' E 135°18'0 0.0
2016-Jan-30 08:26N 34°42' E 135°18'0 0.0
2016-Jan-30 07:32N 34°42' E 135°18'0 0.0
2016-Jan-30 06:32N 34°42' E 135°18'0 0.0
2016-Jan-30 05:32N 34°42' E 135°18'0 0.0
2016-Jan-30 04:32N 34°42' E 135°18'0 0.0
2016-Jan-30 03:26N 34°42' E 135°18'0 0.0
2016-Jan-30 02:32N 34°42' E 135°18'0 0.0
2016-Jan-30 01:32N 34°42' E 135°18'0 0.0
2016-Jan-30 00:32N 34°42' E 135°18'0 0.0
2016-Jan-29 23:20N 34°42' E 135°18'0 0.0
2016-Jan-29 22:32N 34°42' E 135°18'0 0.0
2016-Jan-29 21:32N 34°42' E 135°18'0 0.0
2016-Jan-29 20:32N 34°42' E 135°18'0 0.0
2016-Jan-29 19:32N 34°42' E 135°18'0 0.0
2016-Jan-29 18:32N 34°42' E 135°18'0 0.0
2016-Jan-29 17:26N 34°42' E 135°18'0 0.0
2016-Jan-29 16:32N 34°42' E 135°18'0 0.0
2016-Jan-29 15:32N 34°42' E 135°18'0 0.0
2016-Jan-29 14:32N 34°42' E 135°18'0 0.0
2016-Jan-29 13:32N 34°42' E 135°18'0 0.0
2016-Jan-29 12:20N 34°42' E 135°18'0 0.0
2016-Jan-29 11:26N 34°42' E 135°18'0 0.0
2016-Jan-29 10:26N 34°42' E 135°18'0 0.0
2016-Jan-29 09:32N 34°42' E 135°18'0 0.0
2016-Jan-29 08:26N 34°42' E 135°18'0 0.0
2016-Jan-29 07:32N 34°42' E 135°18'0 0.0
2016-Jan-29 06:32N 34°42' E 135°18'0 0.0
2016-Jan-29 05:26N 34°42' E 135°18'0 0.0
2016-Jan-29 04:14N 34°42' E 135°18'0 0.0
2016-Jan-29 03:32N 34°42' E 135°18'0 0.0
2016-Jan-29 02:32N 34°42' E 135°18'0 0.0
2016-Jan-29 01:32N 34°42' E 135°18'0 0.0
2016-Jan-29 00:20N 34°42' E 135°18'0 0.0
2016-Jan-28 23:20N 34°42' E 135°18'1 1.8
2016-Jan-28 22:33N 34°41' E 135°18'2 2.0
2016-Jan-28 21:33N 34°42' E 135°16'0 0.0
2016-Jan-28 20:07N 34°42' E 135°16'0 0.0
2016-Jan-28 19:25N 34°42' E 135°16'0 0.0
2016-Jan-28 18:25N 34°42' E 135°16'0 0.0
2016-Jan-28 17:31N 34°42' E 135°16'0 0.0
2016-Jan-28 16:25N 34°42' E 135°16'0 0.0
2016-Jan-28 15:31N 34°42' E 135°16'0 0.0
2016-Jan-28 14:31N 34°42' E 135°16'0 0.0
2016-Jan-28 13:19N 34°42' E 135°16'0 0.0
2016-Jan-28 12:31N 34°42' E 135°16'0 0.0
2016-Jan-28 11:31N 34°42' E 135°16'0 0.0
2016-Jan-28 10:25N 34°42' E 135°16'0 0.0
2016-Jan-28 09:31N 34°42' E 135°16'0 0.0
2016-Jan-28 08:31N 34°42' E 135°16'0 0.0
2016-Jan-28 07:31N 34°42' E 135°16'0 0.0
2016-Jan-28 06:19N 34°42' E 135°16'0 0.0
2016-Jan-28 05:31N 34°42' E 135°16'0 0.0
2016-Jan-28 04:25N 34°42' E 135°16'0 0.0
2016-Jan-28 03:31N 34°42' E 135°16'0 0.0
2016-Jan-28 02:31N 34°42' E 135°16'0 0.0
2016-Jan-28 01:31N 34°42' E 135°16'0 0.0
2016-Jan-28 00:31N 34°42' E 135°16'0 0.0
2016-Jan-27 23:31N 34°42' E 135°16'0 0.0
2016-Jan-27 22:31N 34°42' E 135°16'0 0.0
2016-Jan-27 21:31N 34°42' E 135°16'0 0.0
2016-Jan-27 20:31N 34°42' E 135°16'0 0.0
2016-Jan-27 19:31N 34°42' E 135°16'0 0.0
2016-Jan-27 18:31N 34°42' E 135°16'0 0.0
2016-Jan-27 17:31N 34°42' E 135°16'0 0.0
2016-Jan-27 16:31N 34°42' E 135°16'0 0.0
2016-Jan-27 15:25N 34°42' E 135°16'0 0.0
2016-Jan-27 14:31N 34°42' E 135°16'0 0.0
2016-Jan-27 13:31N 34°42' E 135°16'0 0.0
2016-Jan-27 12:31N 34°42' E 135°16'0 0.0
2016-Jan-27 11:31N 34°42' E 135°16'0 0.0
2016-Jan-27 10:31N 34°42' E 135°16'0 0.0
2016-Jan-27 09:31N 34°42' E 135°16'0 0.0
2016-Jan-27 08:31N 34°42' E 135°16'0 0.0
2016-Jan-27 06:25N 34°42' E 135°16'0 0.0
2016-Jan-27 05:31N 34°42' E 135°16'0 0.0
2016-Jan-27 04:19N 34°42' E 135°16'0 0.0
2016-Jan-27 03:31N 34°42' E 135°16'0 0.0
2016-Jan-27 02:25N 34°42' E 135°16'0 0.0
2016-Jan-27 01:19N 34°42' E 135°16'0 0.0
2016-Jan-27 00:33N 34°42' E 135°16'0 0.0
2016-Jan-26 23:33N 34°42' E 135°16'0 0.4
2016-Jan-26 22:33N 34°42' E 135°15'4 4.3
2016-Jan-26 21:33N 34°38' E 135°18'0 0.1
2016-Jan-26 20:32N 34°38' E 135°18'0 0.0
2016-Jan-26 19:32N 34°38' E 135°18'0 0.1
2016-Jan-26 18:32N 34°38' E 135°18'0 0.0
2016-Jan-26 17:26N 34°38' E 135°18'0 0.0
2016-Jan-26 16:32N 34°38' E 135°18'0 0.0
2016-Jan-26 15:32N 34°38' E 135°18'0 0.0
2016-Jan-26 14:32N 34°38' E 135°18'0 0.0
2016-Jan-26 13:26N 34°38' E 135°18'0 0.0
2016-Jan-26 12:32N 34°38' E 135°18'0 0.0
2016-Jan-26 11:26N 34°38' E 135°18'0 0.0
2016-Jan-26 10:32N 34°38' E 135°18'0 0.0
2016-Jan-26 09:32N 34°38' E 135°18'0 0.0
2016-Jan-26 08:26N 34°38' E 135°18'0 0.0
2016-Jan-26 07:32N 34°38' E 135°18'0 0.0
2016-Jan-26 06:32N 34°38' E 135°18'2 1.7
2016-Jan-26 05:33N 34°37' E 135°17'1212.3
2016-Jan-26 04:33N 34°26' E 135°09'  

Dump ship's entire track history